Main page
METAR-TAF:

METAR-TAF

Airports :

Wattisham Flying Station

Wattisham, England

latitude: 52-07N, longitude: 000-58E, elevation: 87 m

Current weather observation

The report was made 1 hour and 7 minutes ago, at 06:50 UTC
Wind 1 kt from the Northwest
Temperature 3°C
Humidity 93%
Pressure 1030 hPa
Visibility 10 km or more

METAR: EGUW 240650Z AUTO 31001KT 9999 BKN090/// 03/02 Q1030

Time: 07:57 (07:57 UTC)


TAF: missing

Weather observations and forecasts of more than 4000 airports (METAR and TAF reports).

The available stations are represented by yellow and red dots on the map.

Hover mouse over dot to see the name of the station.

Then click to see weather observations and forecasts.

To change the map : click on the green buttons with a black cross to zoom in, on the green button with a dash to zoom out, or on the green arrows for adjacent maps.


METAR-TAF: